createdAt,value
2022-09-04T00:00:29.001Z,57.89
2022-09-04T00:03:49.103Z,57.96
2022-09-04T00:06:59.771Z,57.96
2022-09-04T00:10:42.072Z,57.99
2022-09-04T00:13:56.218Z,58.00
2022-09-04T00:17:08.933Z,58.11
2022-09-04T00:20:18.984Z,58.13
2022-09-04T00:23:41.339Z,58.23
2022-09-04T00:27:14.328Z,58.26
2022-09-04T00:30:26.467Z,58.35
2022-09-04T00:33:51.539Z,58.42
2022-09-04T00:37:01.389Z,58.49
2022-09-04T00:40:20.453Z,58.52
2022-09-04T00:43:56.522Z,58.58
2022-09-04T00:47:23.578Z,58.66
2022-09-04T00:50:40.081Z,58.87
2022-09-04T00:54:21.876Z,59.04
2022-09-04T00:58:14.315Z,59.11
2022-09-04T01:01:20.373Z,59.21
2022-09-04T01:04:38.833Z,59.11
2022-09-04T01:07:56.470Z,59.21
2022-09-04T01:11:42.899Z,59.39
2022-09-04T01:15:03.881Z,59.40
2022-09-04T01:18:51.928Z,59.39
2022-09-04T01:22:38.124Z,59.40
2022-09-04T01:26:25.882Z,59.43
2022-09-04T01:29:54.771Z,59.55
2022-09-04T01:33:40.866Z,59.81
2022-09-04T01:36:55.439Z,59.93
2022-09-04T01:40:07.628Z,59.85
2022-09-04T01:43:29.259Z,60.01
2022-09-04T01:46:56.632Z,60.03
2022-09-04T01:50:12.309Z,60.09
2022-09-04T01:53:33.715Z,60.16
2022-09-04T01:56:54.007Z,60.09
2022-09-04T02:00:10.631Z,60.16
2022-09-04T02:03:34.913Z,60.18
2022-09-04T02:07:04.109Z,60.34
2022-09-04T02:10:19.397Z,60.29
2022-09-04T02:14:02.739Z,60.30
2022-09-04T02:17:38.797Z,60.40
2022-09-04T02:20:46.530Z,60.52
2022-09-04T02:24:07.406Z,60.54
2022-09-04T02:27:32.205Z,60.52
2022-09-04T02:30:38.574Z,60.59
2022-09-04T02:34:10.235Z,60.63
2022-09-04T02:37:42.704Z,60.65
2022-09-04T02:41:14.390Z,60.78
2022-09-04T02:44:43.789Z,60.86
2022-09-04T02:48:02.745Z,60.99
2022-09-04T02:52:00.570Z,61.26
2022-09-04T02:55:31.051Z,61.34
2022-09-04T02:58:54.015Z,61.49
2022-09-04T03:02:14.137Z,61.42
2022-09-04T03:05:40.965Z,61.33
2022-09-04T03:09:01.051Z,61.38
2022-09-04T03:12:42.324Z,61.52
2022-09-04T03:16:13.822Z,61.57
2022-09-04T03:19:30.077Z,61.56
2022-09-04T03:22:46.895Z,61.58
2022-09-04T03:26:28.282Z,61.62
2022-09-04T03:29:47.966Z,61.71
2022-09-04T03:33:06.191Z,61.76
2022-09-04T03:36:26.296Z,61.84
2022-09-04T03:39:55.867Z,61.90
2022-09-04T03:43:32.673Z,62.01
2022-09-04T03:46:43.121Z,62.13
2022-09-04T03:50:24.154Z,62.24
2022-09-04T03:53:57.727Z,62.23
2022-09-04T03:57:29.453Z,62.20
2022-09-04T04:00:36.351Z,62.25
2022-09-04T04:04:39.333Z,62.35
2022-09-04T04:08:17.031Z,62.43
2022-09-04T04:11:43.271Z,62.53
2022-09-04T04:15:00.639Z,62.59
2022-09-04T04:18:38.647Z,62.66
2022-09-04T04:22:23.943Z,62.71
2022-09-04T04:25:52.386Z,62.74
2022-09-04T04:29:20.783Z,62.65
2022-09-04T04:32:47.513Z,62.67
2022-09-04T04:36:08.300Z,62.75
2022-09-04T04:39:32.135Z,62.82
2022-09-04T04:43:05.902Z,62.85
2022-09-04T04:46:34.305Z,62.86
2022-09-04T04:50:14.821Z,62.88
2022-09-04T04:53:52.020Z,62.86
2022-09-04T04:57:20.795Z,62.88
2022-09-04T05:00:34.315Z,62.95
2022-09-04T05:04:00.874Z,62.96
2022-09-04T05:07:11.834Z,62.99
2022-09-04T05:10:47.751Z,63.08
2022-09-04T05:14:21.514Z,63.14
2022-09-04T05:18:11.814Z,63.13
2022-09-04T05:21:30.161Z,63.17
2022-09-04T05:24:47.091Z,63.37
2022-09-04T05:28:23.361Z,63.42
2022-09-04T05:31:55.223Z,63.50
2022-09-04T05:35:37.097Z,63.63
2022-09-04T05:39:30.910Z,63.66
2022-09-04T05:42:57.618Z,63.76
2022-09-04T05:46:22.418Z,63.77
2022-09-04T05:49:38.275Z,63.83
2022-09-04T05:53:24.526Z,63.90
2022-09-04T05:57:18.607Z,63.95
2022-09-04T06:00:30.218Z,63.90
2022-09-04T06:04:05.338Z,63.97
2022-09-04T06:07:37.783Z,63.93
2022-09-04T06:11:12.792Z,63.87
2022-09-04T06:14:44.703Z,63.86
2022-09-04T06:17:58.383Z,63.81
2022-09-04T06:21:24.620Z,63.83
2022-09-04T06:24:56.983Z,63.88
2022-09-04T06:28:36.852Z,63.88
2022-09-04T06:32:03.999Z,63.89
2022-09-04T06:35:30.116Z,63.87
2022-09-04T06:39:05.354Z,63.90
2022-09-04T06:42:41.325Z,63.95
2022-09-04T06:46:05.367Z,63.90
2022-09-04T06:49:42.998Z,63.86
2022-09-04T06:53:14.697Z,63.79
2022-09-04T06:56:51.336Z,63.63
2022-09-04T07:00:25.386Z,63.58
2022-09-04T07:03:59.867Z,63.46
2022-09-04T07:07:27.964Z,63.41
2022-09-04T07:10:41.672Z,63.41
2022-09-04T07:14:20.647Z,63.27
2022-09-04T07:17:58.453Z,63.15
2022-09-04T07:21:14.953Z,63.13
2022-09-04T07:24:45.037Z,63.10
2022-09-04T07:28:22.564Z,63.05
2022-09-04T07:31:59.660Z,62.97
2022-09-04T07:35:35.030Z,62.91
2022-09-04T07:38:57.081Z,62.89
2022-09-04T07:42:07.158Z,62.90
2022-09-04T07:45:38.013Z,62.87
2022-09-04T07:49:00.488Z,62.79
2022-09-04T07:52:47.064Z,62.69
2022-09-04T07:56:14.749Z,62.64
2022-09-04T07:59:52.902Z,62.53
2022-09-04T08:03:34.913Z,62.53
2022-09-04T08:06:53.126Z,62.61
2022-09-04T08:10:22.658Z,62.71
2022-09-04T08:13:52.357Z,62.57
2022-09-04T08:17:10.707Z,62.36
2022-09-04T08:20:35.630Z,62.17
2022-09-04T08:24:05.440Z,62.14
2022-09-04T08:27:44.176Z,62.15
2022-09-04T08:31:06.023Z,62.11
2022-09-04T08:34:51.875Z,62.16
2022-09-04T08:38:48.950Z,62.03
2022-09-04T08:42:27.745Z,61.93
2022-09-04T08:45:50.449Z,61.90
2022-09-04T08:49:40.801Z,61.75
2022-09-04T08:57:10.241Z,61.40
2022-09-04T09:00:56.905Z,61.06
2022-09-04T09:04:32.938Z,60.60
2022-09-04T09:08:12.271Z,60.49
2022-09-04T09:11:45.759Z,60.45
2022-09-04T09:15:21.950Z,60.41
2022-09-04T09:18:55.950Z,60.50
2022-09-04T09:22:09.009Z,60.25
2022-09-04T09:25:34.673Z,60.08
2022-09-04T09:29:17.052Z,59.88
2022-09-04T09:33:02.712Z,59.67
2022-09-04T09:36:24.940Z,59.50
2022-09-04T09:39:48.452Z,59.41
2022-09-04T09:43:26.209Z,59.59
2022-09-04T09:47:11.915Z,59.68
2022-09-04T09:50:40.612Z,59.48
2022-09-04T09:54:24.161Z,59.06
2022-09-04T09:57:53.244Z,58.79
2022-09-04T10:01:23.838Z,58.83
2022-09-04T10:05:06.813Z,58.78
2022-09-04T10:08:48.647Z,58.64
2022-09-04T10:12:00.599Z,58.52
2022-09-04T10:15:49.992Z,58.50
2022-09-04T10:19:53.210Z,58.52
2022-09-04T10:23:41.025Z,58.40
2022-09-04T10:27:03.371Z,58.41
2022-09-04T10:30:26.028Z,58.14
2022-09-04T10:33:43.781Z,58.08
2022-09-04T10:37:24.250Z,58.00
2022-09-04T10:40:51.302Z,57.82
2022-09-04T10:44:44.339Z,58.01
2022-09-04T10:48:09.019Z,57.93
2022-09-04T10:51:26.240Z,57.63
2022-09-04T10:55:19.719Z,57.42
2022-09-04T10:58:36.901Z,57.11
2022-09-04T11:02:13.068Z,56.84
2022-09-04T11:05:27.761Z,56.84
2022-09-04T11:08:51.809Z,56.75
2022-09-04T11:12:28.963Z,56.73
2022-09-04T11:16:03.215Z,56.76
2022-09-04T11:19:47.851Z,56.88
2022-09-04T11:23:22.537Z,56.65
2022-09-04T11:27:08.058Z,56.34
2022-09-04T11:30:26.092Z,56.24
2022-09-04T11:34:03.263Z,56.36
2022-09-04T11:37:30.587Z,56.29
2022-09-04T11:41:03.186Z,55.88
2022-09-04T11:44:37.546Z,55.62
2022-09-04T11:48:15.113Z,55.37
2022-09-04T11:51:54.802Z,55.21
2022-09-04T11:55:44.245Z,55.10
2022-09-04T11:59:30.393Z,55.02
2022-09-04T12:02:55.797Z,54.92
2022-09-04T12:06:43.362Z,54.81
2022-09-04T12:10:21.948Z,54.83
2022-09-04T12:14:16.526Z,54.92
2022-09-04T12:17:42.879Z,54.95
2022-09-04T12:21:12.931Z,54.74
2022-09-04T12:24:32.181Z,54.55
2022-09-04T12:27:56.971Z,54.38
2022-09-04T12:31:40.290Z,54.11
2022-09-04T12:35:07.074Z,53.75
2022-09-04T12:38:58.693Z,53.40
2022-09-04T12:42:45.741Z,53.09
2022-09-04T12:46:24.130Z,52.98
2022-09-04T12:50:15.358Z,52.94
2022-09-04T12:54:06.942Z,53.08
2022-09-04T12:57:32.389Z,52.97
2022-09-04T13:00:47.203Z,52.75
2022-09-04T13:03:56.213Z,52.54
2022-09-04T13:07:16.604Z,52.47
2022-09-04T13:10:45.182Z,52.16
2022-09-04T13:14:05.620Z,52.01
2022-09-04T13:17:25.457Z,51.89
2022-09-04T13:20:50.985Z,51.73
2022-09-04T13:24:18.584Z,51.69
2022-09-04T13:27:51.751Z,51.51
2022-09-04T13:31:05.942Z,51.40
2022-09-04T13:34:19.961Z,51.36
2022-09-04T13:37:52.625Z,51.20
2022-09-04T13:41:39.244Z,51.15
2022-09-04T13:45:16.535Z,50.90
2022-09-04T13:48:44.411Z,50.79
2022-09-04T13:52:03.032Z,50.69
2022-09-04T13:55:18.356Z,50.54
2022-09-04T13:58:49.306Z,50.43
2022-09-04T14:01:58.773Z,50.35
2022-09-04T14:05:03.848Z,50.23
2022-09-04T14:08:20.669Z,50.16
2022-09-04T14:11:55.317Z,50.07
2022-09-04T14:15:24.109Z,49.96
2022-09-04T14:19:10.806Z,49.90
2022-09-04T14:22:16.724Z,49.88
2022-09-04T14:25:33.422Z,49.89
2022-09-04T14:29:21.853Z,49.88
2022-09-04T14:33:00.831Z,49.71
2022-09-04T14:36:37.577Z,49.56
2022-09-04T14:40:16.188Z,49.41
2022-09-04T14:44:03.679Z,49.25
2022-09-04T14:47:57.291Z,49.07
2022-09-04T14:51:08.393Z,48.96
2022-09-04T14:54:16.389Z,48.85
2022-09-04T14:57:50.699Z,48.77
2022-09-04T15:01:21.649Z,48.74
2022-09-04T15:04:34.399Z,48.66
2022-09-04T15:08:08.930Z,48.63
2022-09-04T15:11:29.283Z,48.56
2022-09-04T15:14:47.335Z,48.44
2022-09-04T15:17:58.116Z,48.41
2022-09-04T15:21:21.363Z,48.27
2022-09-04T15:25:02.244Z,48.14
2022-09-04T15:28:26.935Z,47.92
2022-09-04T15:31:49.060Z,47.80
2022-09-04T15:34:58.004Z,47.78
2022-09-04T15:38:23.480Z,47.74
2022-09-04T15:41:57.675Z,47.67
2022-09-04T15:45:05.882Z,47.50
2022-09-04T15:48:41.775Z,47.49
2022-09-04T15:52:10.097Z,47.44
2022-09-04T15:55:44.126Z,47.46
2022-09-04T15:59:09.304Z,47.46
2022-09-04T16:02:25.829Z,47.47
2022-09-04T16:05:59.622Z,47.32
2022-09-04T16:09:21.699Z,47.23
2022-09-04T16:12:30.795Z,47.23
2022-09-04T16:15:55.817Z,47.18
2022-09-04T16:19:31.167Z,47.19
2022-09-04T16:23:12.821Z,47.18
2022-09-04T16:26:32.848Z,47.19
2022-09-04T16:29:51.567Z,47.21
2022-09-04T16:32:57.257Z,47.23
2022-09-04T16:36:04.114Z,47.25
2022-09-04T16:39:46.093Z,47.24
2022-09-04T16:43:04.247Z,47.25
2022-09-04T16:46:43.661Z,47.30
2022-09-04T16:50:20.497Z,47.31
2022-09-04T16:53:35.475Z,47.36
2022-09-04T16:57:12.087Z,47.37
2022-09-04T17:00:15.243Z,47.39
2022-09-04T17:03:35.426Z,47.50
2022-09-04T17:07:00.031Z,47.65
2022-09-04T17:10:37.230Z,47.71
2022-09-04T17:13:50.394Z,47.84
2022-09-04T17:17:30.195Z,48.03
2022-09-04T17:20:41.963Z,48.14
2022-09-04T17:29:02.864Z,48.29
2022-09-04T17:29:12.860Z,48.37
2022-09-04T17:30:28.883Z,48.51
2022-09-04T17:39:30.269Z,48.70
2022-09-04T17:40:41.419Z,48.86
2022-09-04T17:40:56.106Z,48.92
2022-09-04T17:43:22.621Z,49.08
2022-09-04T17:46:14.454Z,49.21
2022-09-04T17:49:36.260Z,49.29
2022-09-04T17:52:48.865Z,49.43
2022-09-04T17:55:58.819Z,49.53
2022-09-04T17:59:24.546Z,49.66
2022-09-04T18:03:02.730Z,49.84
2022-09-04T18:06:28.090Z,49.95
2022-09-04T18:09:43.430Z,50.12
2022-09-04T18:13:36.630Z,50.30
2022-09-04T18:17:11.095Z,50.40
2022-09-04T18:20:19.620Z,50.48
2022-09-04T18:24:07.378Z,50.62
2022-09-04T18:27:26.982Z,50.77
2022-09-04T18:36:50.020Z,50.88
2022-09-04T18:37:23.605Z,51.04
2022-09-04T18:37:45.074Z,51.15
2022-09-04T18:44:41.808Z,51.32
2022-09-04T18:50:30.192Z,51.59
2022-09-04T18:50:43.621Z,51.47
2022-09-04T18:51:38.174Z,51.70
2022-09-04T18:54:59.406Z,51.79
2022-09-04T18:58:11.265Z,51.87
2022-09-04T19:01:28.147Z,52.01
2022-09-04T19:04:55.269Z,52.15
2022-09-04T19:08:13.391Z,52.34
2022-09-04T19:11:28.376Z,52.47
2022-09-04T19:14:42.751Z,52.64
2022-09-04T19:17:51.115Z,52.75
2022-09-04T19:21:14.151Z,52.83
2022-09-04T19:24:46.658Z,52.98
2022-09-04T19:28:07.912Z,53.07
2022-09-04T19:31:21.586Z,53.23
2022-09-04T19:34:55.464Z,53.38
2022-09-04T19:42:02.922Z,53.46
2022-09-04T19:46:03.556Z,53.59
2022-09-04T19:46:26.494Z,53.76
2022-09-04T19:48:16.216Z,53.89
2022-09-04T19:53:29.945Z,53.97
2022-09-04T19:55:23.858Z,53.99
2022-09-04T19:58:25.106Z,54.06
2022-09-04T20:01:35.590Z,54.23
2022-09-04T20:04:55.146Z,54.40
2022-09-04T20:08:18.097Z,54.36
2022-09-04T20:11:41.568Z,54.49
2022-09-04T20:14:57.253Z,54.60
2022-09-04T20:18:24.708Z,54.75
2022-09-04T20:21:44.799Z,54.80
2022-09-04T20:25:07.050Z,54.74
2022-09-04T20:28:36.562Z,54.92
2022-09-04T20:31:56.058Z,55.11
2022-09-04T20:35:33.253Z,55.27
2022-09-04T20:38:55.879Z,55.38
2022-09-04T20:42:08.485Z,55.30
2022-09-04T20:47:14.903Z,55.34
2022-09-04T20:52:53.162Z,55.50
2022-09-04T20:52:56.684Z,55.66
2022-09-04T20:55:18.803Z,55.61
2022-09-04T21:03:14.626Z,55.70
2022-09-04T21:03:20.991Z,55.77
2022-09-04T21:06:09.767Z,55.68
2022-09-04T21:09:39.076Z,55.61
2022-09-04T21:13:12.292Z,55.92
2022-09-04T21:16:08.037Z,56.19
2022-09-04T21:19:54.295Z,56.37
2022-09-04T21:23:23.669Z,56.37
2022-09-04T21:26:41.846Z,56.29
2022-09-04T21:30:05.828Z,56.28
2022-09-04T21:33:35.970Z,56.50
2022-09-04T21:36:56.956Z,56.71
2022-09-04T21:40:51.388Z,56.86
2022-09-04T21:44:24.863Z,56.98
2022-09-04T21:47:45.045Z,56.94
2022-09-04T21:51:15.709Z,56.85
2022-09-04T21:57:51.813Z,56.78
2022-09-04T22:02:36.670Z,56.79
2022-09-04T22:02:49.309Z,57.13
2022-09-04T22:05:38.090Z,57.23
2022-09-04T22:13:27.333Z,57.13
2022-09-04T22:13:38.524Z,57.09
2022-09-04T22:16:19.018Z,57.13
2022-09-04T22:20:10.493Z,57.38
2022-09-04T22:23:39.339Z,57.51
2022-09-04T22:27:26.059Z,57.57
2022-09-04T22:30:33.374Z,57.79
2022-09-04T22:34:15.077Z,58.03
2022-09-04T22:37:14.724Z,58.14
2022-09-04T22:40:55.923Z,58.14
2022-09-04T22:43:46.913Z,57.99
2022-09-04T22:47:16.305Z,58.05
2022-09-04T22:50:49.986Z,58.19
2022-09-04T22:54:16.414Z,58.33
2022-09-04T22:57:45.294Z,58.34
2022-09-04T23:01:19.210Z,58.27
2022-09-04T23:04:31.283Z,58.35
2022-09-04T23:13:42.563Z,58.38
2022-09-04T23:13:49.617Z,58.43
2022-09-04T23:15:46.352Z,58.52
2022-09-04T23:20:39.736Z,58.70
2022-09-04T23:26:49.215Z,58.61
2022-09-04T23:26:58.157Z,58.60
2022-09-04T23:30:02.386Z,58.68
2022-09-04T23:33:31.429Z,58.67
2022-09-04T23:37:16.051Z,58.68
2022-09-04T23:40:51.191Z,58.96
2022-09-04T23:44:32.171Z,58.96
2022-09-04T23:48:20.927Z,59.00
2022-09-04T23:52:01.302Z,59.07
2022-09-04T23:55:36.578Z,59.25
2022-09-04T23:59:35.455Z,59.29
